createdAt,value
2023-07-02T00:01:03.421Z,67.26
2023-07-02T00:04:17.708Z,67.62
2023-07-02T00:07:19.494Z,67.78
2023-07-02T00:10:30.783Z,68.10
2023-07-02T00:13:31.545Z,68.54
2023-07-02T00:16:43.952Z,68.68
2023-07-02T00:19:37.529Z,68.98
2023-07-02T00:22:43.215Z,69.11
2023-07-02T00:25:54.114Z,69.33
2023-07-02T00:29:07.276Z,69.45
2023-07-02T00:32:02.753Z,69.49
2023-07-02T00:35:07.165Z,69.39
2023-07-02T00:38:19.236Z,69.58
2023-07-02T00:41:30.029Z,69.80
2023-07-02T00:44:33.317Z,70.09
2023-07-02T00:47:37.142Z,70.36
2023-07-02T00:50:41.798Z,70.53
2023-07-02T00:53:34.390Z,70.72
2023-07-02T00:56:47.306Z,70.97
2023-07-02T00:59:41.122Z,71.20
2023-07-02T01:02:37.500Z,71.36
2023-07-02T01:05:42.742Z,71.54
2023-07-02T01:08:43.529Z,71.61
2023-07-02T01:11:56.287Z,71.58
2023-07-02T01:14:54.266Z,71.61
2023-07-02T01:18:06.179Z,71.86
2023-07-02T01:21:17.020Z,71.80
2023-07-02T01:24:22.485Z,71.93
2023-07-02T01:27:17.189Z,72.32
2023-07-02T01:30:28.306Z,72.44
2023-07-02T01:33:28.252Z,72.42
2023-07-02T01:36:28.831Z,72.51
2023-07-02T01:39:39.706Z,72.70
2023-07-02T01:42:50.441Z,72.76
2023-07-02T01:45:51.465Z,72.82
2023-07-02T01:49:00.963Z,73.04
2023-07-02T01:52:11.816Z,73.17
2023-07-02T01:55:12.655Z,73.20
2023-07-02T01:58:17.084Z,73.13
2023-07-02T02:01:07.747Z,73.18
2023-07-02T02:04:08.755Z,72.87
2023-07-02T02:07:19.537Z,72.75
2023-07-02T02:10:24.091Z,72.56
2023-07-02T02:13:34.407Z,72.55
2023-07-02T02:16:46.999Z,72.36
2023-07-02T02:19:56.283Z,72.32
2023-07-02T02:22:58.046Z,72.36
2023-07-02T02:26:08.812Z,72.43
2023-07-02T02:29:19.592Z,72.42
2023-07-02T02:32:30.324Z,72.44
2023-07-02T02:35:21.121Z,72.40
2023-07-02T02:38:25.209Z,72.30
2023-07-02T02:41:25.831Z,72.21
2023-07-02T02:44:26.763Z,72.13
2023-07-02T02:47:27.776Z,72.22
2023-07-02T02:50:42.411Z,72.25
2023-07-02T02:53:35.479Z,72.29
2023-07-02T02:56:29.686Z,72.32
2023-07-02T02:59:34.368Z,72.42
2023-07-02T03:02:34.295Z,72.40
2023-07-02T03:05:29.787Z,72.28
2023-07-02T03:08:41.649Z,72.22
2023-07-02T03:11:41.492Z,72.23
2023-07-02T03:14:55.750Z,72.15
2023-07-02T03:17:46.571Z,72.19
2023-07-02T03:20:37.321Z,72.19
2023-07-02T03:23:30.711Z,72.14
2023-07-02T03:26:31.841Z,72.15
2023-07-02T03:29:42.774Z,72.27
2023-07-02T03:32:53.702Z,72.39
2023-07-02T03:35:47.746Z,72.32
2023-07-02T03:38:40.957Z,72.49
2023-07-02T03:41:34.749Z,72.50
2023-07-02T03:44:45.224Z,72.70
2023-07-02T03:47:56.080Z,72.78
2023-07-02T03:51:07.033Z,72.88
2023-07-02T03:54:17.771Z,72.90
2023-07-02T03:57:28.665Z,72.62
2023-07-02T04:00:32.918Z,72.65
2023-07-02T04:03:49.937Z,72.54
2023-07-02T04:06:51.634Z,72.44
2023-07-02T04:10:02.578Z,72.37
2023-07-02T04:13:13.545Z,72.35
2023-07-02T04:16:23.016Z,72.29
2023-07-02T04:19:14.445Z,72.26
2023-07-02T04:22:25.366Z,72.31
2023-07-02T04:25:51.252Z,72.22
2023-07-02T04:29:07.088Z,72.26
2023-07-02T04:32:09.883Z,72.10
2023-07-02T04:35:20.918Z,72.00
2023-07-02T04:38:11.764Z,71.86
2023-07-02T04:41:22.652Z,71.79
2023-07-02T04:44:33.008Z,71.67
2023-07-02T04:47:33.034Z,71.55
2023-07-02T04:50:26.478Z,71.41
2023-07-02T04:53:28.264Z,71.38
2023-07-02T04:56:39.305Z,71.28
2023-07-02T04:59:29.995Z,71.19
2023-07-02T05:02:24.034Z,71.11
2023-07-02T05:05:34.836Z,71.02
2023-07-02T05:08:45.894Z,70.92
2023-07-02T05:11:36.681Z,70.81
2023-07-02T05:14:36.642Z,70.55
2023-07-02T05:17:47.506Z,70.50
2023-07-02T05:20:38.118Z,70.34
2023-07-02T05:23:49.170Z,70.34
2023-07-02T05:26:42.778Z,70.25
2023-07-02T05:29:47.710Z,70.20
2023-07-02T05:32:38.517Z,70.29
2023-07-02T05:35:29.227Z,70.21
2023-07-02T05:38:20.218Z,70.17
2023-07-02T05:41:13.486Z,70.22
2023-07-02T05:44:24.274Z,70.18
2023-07-02T05:47:27.393Z,70.18
2023-07-02T05:50:19.419Z,70.03
2023-07-02T05:53:21.532Z,69.74
2023-07-02T05:56:12.418Z,69.70
2023-07-02T05:59:03.129Z,69.54
2023-07-02T06:01:53.824Z,69.34
2023-07-02T06:04:47.584Z,69.45
2023-07-02T06:07:41.360Z,69.12
2023-07-02T06:10:34.525Z,68.89
2023-07-02T06:13:25.142Z,68.83
2023-07-02T06:16:18.655Z,68.62
2023-07-02T06:19:11.724Z,68.31
2023-07-02T06:22:02.298Z,68.24
2023-07-02T06:24:52.956Z,68.06
2023-07-02T06:27:43.487Z,67.61
2023-07-02T06:30:34.207Z,67.52
2023-07-02T06:33:24.937Z,67.23
2023-07-02T06:36:29.645Z,66.64
2023-07-02T06:39:20.273Z,66.54
2023-07-02T06:42:11.046Z,66.31
2023-07-02T06:45:04.400Z,66.17
2023-07-02T06:47:55.355Z,65.94
2023-07-02T06:50:59.624Z,65.70
2023-07-02T06:53:50.340Z,65.58
2023-07-02T06:56:41.310Z,65.50
2023-07-02T06:59:52.613Z,65.15
2023-07-02T07:02:43.423Z,65.04
2023-07-02T07:05:34.473Z,65.23
2023-07-02T07:08:27.658Z,65.19
2023-07-02T07:11:21.121Z,65.10
2023-07-02T07:14:20.297Z,64.83
2023-07-02T07:17:13.492Z,64.70
2023-07-02T07:20:07.334Z,64.52
2023-07-02T07:23:07.692Z,64.38
2023-07-02T07:26:01.488Z,64.15
2023-07-02T07:29:00.029Z,63.86
2023-07-02T07:31:50.669Z,63.75
2023-07-02T07:34:41.469Z,63.53
2023-07-02T07:37:32.110Z,62.94
2023-07-02T07:40:22.724Z,62.65
2023-07-02T07:43:14.081Z,62.42
2023-07-02T07:46:04.998Z,62.14
2023-07-02T07:49:00.222Z,61.50
2023-07-02T07:51:51.305Z,61.31
2023-07-02T07:54:42.457Z,60.96
2023-07-02T07:57:33.231Z,60.82
2023-07-02T08:00:25.713Z,60.22
2023-07-02T08:03:16.289Z,59.86
2023-07-02T08:06:07.372Z,59.64
2023-07-02T08:08:58.077Z,59.28
2023-07-02T08:11:48.951Z,59.19
2023-07-02T08:14:42.133Z,59.31
2023-07-02T08:17:33.185Z,59.48
2023-07-02T08:20:24.305Z,59.63
2023-07-02T08:23:14.937Z,59.13
2023-07-02T08:26:08.622Z,58.65
2023-07-02T08:28:59.133Z,57.30
2023-07-02T08:31:49.811Z,56.34
2023-07-02T08:34:40.495Z,55.27
2023-07-02T08:37:31.035Z,54.27
2023-07-02T08:40:22.187Z,53.69
2023-07-02T08:43:12.907Z,53.16
2023-07-02T08:46:03.516Z,52.17
2023-07-02T08:48:54.179Z,51.18
2023-07-02T08:51:46.566Z,50.12
2023-07-02T08:54:37.054Z,50.09
2023-07-02T08:57:27.488Z,49.00
2023-07-02T09:00:22.502Z,48.26
2023-07-02T09:03:17.413Z,48.29
2023-07-02T09:06:08.056Z,47.85
2023-07-02T09:09:08.125Z,47.70
2023-07-02T09:11:58.559Z,47.25
2023-07-02T09:14:56.416Z,47.33
2023-07-02T09:17:46.937Z,47.26
2023-07-02T09:20:37.440Z,47.04
2023-07-02T09:23:37.217Z,46.48
2023-07-02T09:26:28.455Z,47.21
2023-07-02T09:29:21.542Z,47.34
2023-07-02T09:32:12.100Z,47.45
2023-07-02T09:35:03.112Z,47.29
2023-07-02T09:37:55.061Z,47.34
2023-07-02T09:40:49.128Z,47.73
2023-07-02T09:43:40.369Z,48.38
2023-07-02T09:46:32.182Z,49.00
2023-07-02T09:49:23.518Z,48.64
2023-07-02T09:52:14.257Z,47.59
2023-07-02T09:55:05.447Z,46.83
2023-07-02T09:57:56.335Z,45.77
2023-07-02T10:00:47.215Z,44.81
2023-07-02T10:03:39.097Z,44.06
2023-07-02T10:06:29.697Z,44.27
2023-07-02T10:09:20.435Z,43.40
2023-07-02T10:12:22.716Z,42.62
2023-07-02T10:15:13.059Z,42.12
2023-07-02T10:18:04.648Z,42.22
2023-07-02T10:20:55.226Z,42.21
2023-07-02T10:23:45.811Z,42.09
2023-07-02T10:26:36.297Z,41.59
2023-07-02T10:29:27.620Z,40.98
2023-07-02T10:32:28.219Z,41.00
2023-07-02T10:35:19.255Z,41.35
2023-07-02T10:38:09.919Z,41.57
2023-07-02T10:41:01.759Z,40.73
2023-07-02T10:43:52.183Z,38.98
2023-07-02T10:46:48.859Z,37.81
2023-07-02T10:49:38.976Z,37.56
2023-07-02T10:52:39.049Z,35.71
2023-07-02T10:55:29.987Z,34.39
2023-07-02T10:58:20.425Z,35.04
2023-07-02T11:01:12.487Z,35.71
2023-07-02T11:04:03.692Z,37.10
2023-07-02T11:06:54.250Z,37.87
2023-07-02T11:09:51.749Z,39.12
2023-07-02T11:12:42.202Z,40.07
2023-07-02T11:15:37.979Z,40.33
2023-07-02T11:18:33.330Z,40.54
2023-07-02T11:21:23.914Z,40.74
2023-07-02T11:24:14.365Z,39.67
2023-07-02T11:27:06.424Z,38.84
2023-07-02T11:30:02.783Z,37.64
2023-07-02T11:32:54.993Z,37.14
2023-07-02T11:35:45.652Z,36.45
2023-07-02T11:38:38.427Z,36.40
2023-07-02T11:41:38.411Z,37.69
2023-07-02T11:44:28.810Z,38.65
2023-07-02T11:47:19.824Z,39.78
2023-07-02T11:50:24.400Z,41.07
2023-07-02T11:53:16.612Z,41.40
2023-07-02T11:56:07.087Z,42.69
2023-07-02T11:58:57.695Z,44.94
2023-07-02T12:01:48.474Z,46.28
2023-07-02T12:04:39.301Z,45.63
2023-07-02T12:07:29.813Z,43.64
2023-07-02T12:10:20.306Z,40.09
2023-07-02T12:13:10.877Z,37.51
2023-07-02T12:16:01.692Z,35.62
2023-07-02T12:18:52.153Z,33.80
2023-07-02T12:21:42.694Z,32.72
2023-07-02T12:24:33.316Z,31.90
2023-07-02T12:27:24.081Z,32.33
2023-07-02T12:30:18.412Z,31.89
2023-07-02T12:33:09.011Z,31.80
2023-07-02T12:36:00.702Z,32.71
2023-07-02T12:38:51.167Z,34.14
2023-07-02T12:41:41.697Z,34.73
2023-07-02T12:44:32.183Z,35.51
2023-07-02T12:47:22.775Z,36.00
2023-07-02T12:50:14.004Z,37.23
2023-07-02T12:53:04.518Z,38.38
2023-07-02T12:55:55.914Z,37.15
2023-07-02T12:58:46.298Z,35.71
2023-07-02T13:01:36.877Z,33.59
2023-07-02T13:04:27.474Z,31.19
2023-07-02T13:07:18.400Z,29.01
2023-07-02T13:10:09.604Z,28.80
2023-07-02T13:13:10.033Z,28.70
2023-07-02T13:16:09.232Z,29.27
2023-07-02T13:19:02.911Z,29.58
2023-07-02T13:21:53.526Z,29.26
2023-07-02T13:24:45.762Z,28.81
2023-07-02T13:27:36.237Z,28.67
2023-07-02T13:30:28.528Z,28.31
2023-07-02T13:33:18.656Z,29.28
2023-07-02T13:36:09.346Z,31.11
2023-07-02T13:38:59.984Z,32.03
2023-07-02T13:41:50.583Z,33.16
2023-07-02T13:44:41.130Z,34.80
2023-07-02T13:47:31.704Z,35.99
2023-07-02T13:50:22.331Z,36.26
2023-07-02T13:53:12.796Z,36.16
2023-07-02T13:56:03.479Z,35.47
2023-07-02T13:59:06.821Z,33.62
2023-07-02T14:01:57.443Z,33.48
2023-07-02T14:04:48.028Z,33.67
2023-07-02T14:07:38.619Z,32.58
2023-07-02T14:10:29.765Z,32.54
2023-07-02T14:13:20.233Z,33.75
2023-07-02T14:16:10.858Z,35.06
2023-07-02T14:19:01.419Z,35.88
2023-07-02T14:21:51.983Z,36.75
2023-07-02T14:24:42.723Z,37.53
2023-07-02T14:27:33.577Z,37.68
2023-07-02T14:30:24.304Z,38.34
2023-07-02T14:33:14.919Z,40.77
2023-07-02T14:36:05.789Z,41.55
2023-07-02T14:38:56.359Z,40.93
2023-07-02T14:41:46.951Z,40.06
2023-07-02T14:44:37.551Z,39.73
2023-07-02T14:47:28.148Z,40.36
2023-07-02T14:50:19.855Z,40.59
2023-07-02T14:53:10.962Z,40.70
2023-07-02T14:56:03.504Z,41.03
2023-07-02T14:58:54.112Z,41.22
2023-07-02T15:01:46.034Z,40.98
2023-07-02T15:04:39.268Z,40.55
2023-07-02T15:07:29.656Z,40.09
2023-07-02T15:10:20.382Z,39.97
2023-07-02T15:13:11.506Z,40.06
2023-07-02T15:16:02.156Z,40.58
2023-07-02T15:18:52.821Z,41.35
2023-07-02T15:21:43.415Z,41.51
2023-07-02T15:24:36.136Z,41.58
2023-07-02T15:27:27.890Z,41.48
2023-07-02T15:30:19.162Z,41.26
2023-07-02T15:33:09.847Z,42.71
2023-07-02T15:36:01.040Z,43.97
2023-07-02T15:38:51.975Z,44.74
2023-07-02T15:41:44.214Z,45.00
2023-07-02T15:44:35.814Z,44.55
2023-07-02T15:47:26.512Z,44.30
2023-07-02T15:50:17.171Z,43.83
2023-07-02T15:53:07.712Z,43.65
2023-07-02T15:55:58.721Z,44.28
2023-07-02T15:58:49.478Z,44.21
2023-07-02T16:01:40.756Z,43.65
2023-07-02T16:04:31.370Z,43.74
2023-07-02T16:07:22.258Z,44.14
2023-07-02T16:10:12.877Z,44.33
2023-07-02T16:13:03.594Z,44.57
2023-07-02T16:15:54.716Z,44.90
2023-07-02T16:18:45.252Z,44.96
2023-07-02T16:21:38.235Z,45.43
2023-07-02T16:24:30.295Z,47.63
2023-07-02T16:27:21.780Z,49.98
2023-07-02T16:30:13.252Z,51.97
2023-07-02T16:33:03.885Z,53.04
2023-07-02T16:35:54.527Z,54.38
2023-07-02T16:38:45.650Z,55.62
2023-07-02T16:41:38.126Z,56.40
2023-07-02T16:44:29.552Z,57.33
2023-07-02T16:47:20.201Z,57.55
2023-07-02T16:50:11.671Z,57.50
2023-07-02T16:53:05.413Z,57.22
2023-07-02T16:55:59.411Z,56.84
2023-07-02T16:58:50.093Z,56.55
2023-07-02T17:01:40.826Z,56.55
2023-07-02T17:04:31.620Z,54.57
2023-07-02T17:07:22.155Z,53.53
2023-07-02T17:10:13.118Z,53.38
2023-07-02T17:13:03.499Z,53.55
2023-07-02T17:15:54.289Z,53.65
2023-07-02T17:18:44.955Z,54.00
2023-07-02T17:21:36.508Z,53.86
2023-07-02T17:24:27.734Z,54.01
2023-07-02T17:27:19.297Z,53.78
2023-07-02T17:30:11.952Z,53.82
2023-07-02T17:33:02.421Z,53.79
2023-07-02T17:35:52.912Z,53.69
2023-07-02T17:38:43.403Z,53.63
2023-07-02T17:41:33.835Z,53.43
2023-07-02T17:44:26.890Z,53.54
2023-07-02T17:47:18.885Z,53.72
2023-07-02T17:50:10.302Z,53.58
2023-07-02T17:53:00.900Z,53.27
2023-07-02T17:55:52.004Z,53.26
2023-07-02T17:58:42.784Z,53.35
2023-07-02T18:01:41.950Z,52.81
2023-07-02T18:07:23.808Z,51.97
2023-07-02T18:10:14.487Z,51.80
2023-07-02T18:13:05.343Z,51.82
2023-07-02T18:15:58.085Z,51.73
2023-07-02T18:18:48.868Z,51.74
2023-07-02T18:21:39.425Z,52.18
2023-07-02T18:24:30.440Z,52.60
2023-07-02T18:27:21.002Z,52.94
2023-07-02T18:30:12.350Z,53.28
2023-07-02T18:33:03.017Z,53.46
2023-07-02T18:35:55.766Z,53.37
2023-07-02T18:38:46.393Z,53.56
2023-07-02T18:41:36.996Z,53.95
2023-07-02T18:44:30.473Z,54.42
2023-07-02T18:47:22.480Z,54.90
2023-07-02T18:50:14.792Z,55.11
2023-07-02T18:53:05.319Z,55.48
2023-07-02T18:56:00.361Z,56.04
2023-07-02T18:58:50.534Z,56.51
2023-07-02T19:01:44.145Z,56.84
2023-07-02T19:04:35.381Z,56.93
2023-07-02T19:07:26.011Z,56.52
2023-07-02T19:10:17.861Z,56.06
2023-07-02T19:13:12.254Z,54.42
2023-07-02T19:16:02.866Z,53.88
2023-07-02T19:18:53.524Z,54.76
2023-07-02T19:21:46.748Z,54.92
2023-07-02T19:24:37.392Z,54.64
2023-07-02T19:27:28.278Z,54.35
2023-07-02T19:30:22.067Z,54.14
2023-07-02T19:33:13.002Z,54.00
2023-07-02T19:36:07.105Z,53.98
2023-07-02T19:38:57.757Z,53.57
2023-07-02T19:41:56.150Z,53.26
2023-07-02T19:44:54.497Z,53.27
2023-07-02T19:47:45.310Z,53.24
2023-07-02T19:50:39.015Z,53.42
2023-07-02T19:53:30.271Z,53.56
2023-07-02T19:56:29.732Z,53.75
2023-07-02T19:59:20.422Z,53.86
2023-07-02T20:02:11.492Z,53.97
2023-07-02T20:05:03.002Z,54.21
2023-07-02T20:07:53.681Z,54.39
2023-07-02T20:10:44.244Z,54.61
2023-07-02T20:13:35.360Z,54.73
2023-07-02T20:16:29.127Z,55.03
2023-07-02T20:19:21.946Z,55.05
2023-07-02T20:22:14.805Z,55.39
2023-07-02T20:25:35.617Z,55.48
2023-07-02T20:28:16.675Z,55.76
2023-07-02T20:31:07.760Z,56.01
2023-07-02T20:34:02.298Z,56.21
2023-07-02T20:36:57.468Z,56.69
2023-07-02T20:39:49.337Z,56.95
2023-07-02T20:43:00.898Z,57.39
2023-07-02T20:45:55.513Z,57.61
2023-07-02T20:48:46.190Z,57.65
2023-07-02T20:51:57.008Z,57.77
2023-07-02T20:54:47.733Z,57.93
2023-07-02T20:57:41.484Z,57.66
2023-07-02T21:00:42.010Z,57.72
2023-07-02T21:03:41.517Z,58.00
2023-07-02T21:06:52.681Z,58.86
2023-07-02T21:09:46.313Z,59.65
2023-07-02T21:12:37.267Z,60.21
2023-07-02T21:15:39.212Z,60.67
2023-07-02T21:18:50.243Z,61.25
2023-07-02T21:21:47.428Z,61.67
2023-07-02T21:24:38.660Z,62.25
2023-07-02T21:27:29.593Z,62.65
2023-07-02T21:30:21.162Z,63.06
2023-07-02T21:33:14.700Z,63.40
2023-07-02T21:36:09.069Z,63.56
2023-07-02T21:39:03.132Z,63.84
2023-07-02T21:41:56.080Z,64.33
2023-07-02T21:45:09.969Z,64.19
2023-07-02T21:48:11.595Z,64.41
2023-07-02T21:51:02.329Z,64.45
2023-07-02T21:53:55.439Z,64.21
2023-07-02T21:57:06.638Z,63.95
2023-07-02T22:00:18.235Z,63.78
2023-07-02T22:03:09.284Z,63.43
2023-07-02T22:06:05.696Z,63.31
2023-07-02T22:08:59.057Z,63.49
2023-07-02T22:11:52.124Z,63.62
2023-07-02T22:14:57.467Z,63.48
2023-07-02T22:17:50.676Z,63.55
2023-07-02T22:20:55.403Z,63.57
2023-07-02T22:23:49.396Z,63.59
2023-07-02T22:26:40.090Z,63.72
2023-07-02T22:29:30.886Z,63.65
2023-07-02T22:32:31.879Z,63.82
2023-07-02T22:35:22.770Z,63.84
2023-07-02T22:38:33.593Z,64.09
2023-07-02T22:41:44.548Z,64.12
2023-07-02T22:44:35.228Z,64.22
2023-07-02T22:47:46.327Z,64.25
2023-07-02T22:50:39.726Z,64.45
2023-07-02T22:53:30.486Z,64.29
2023-07-02T22:56:22.183Z,64.24
2023-07-02T22:59:33.054Z,64.40
2023-07-02T23:02:33.818Z,64.53
2023-07-02T23:05:24.987Z,64.73
2023-07-02T23:08:36.011Z,64.86
2023-07-02T23:11:37.510Z,64.91
2023-07-02T23:14:39.251Z,64.94
2023-07-02T23:17:30.063Z,64.83
2023-07-02T23:20:23.326Z,64.89
2023-07-02T23:23:14.726Z,64.78
2023-07-02T23:26:07.877Z,64.77
2023-07-02T23:29:08.175Z,64.63
2023-07-02T23:32:14.230Z,64.63
2023-07-02T23:35:32.642Z,64.63
2023-07-02T23:38:24.092Z,64.79
2023-07-02T23:41:24.500Z,64.90
2023-07-02T23:44:26.453Z,64.88
2023-07-02T23:47:19.356Z,65.00
2023-07-02T23:50:28.686Z,65.14
2023-07-02T23:53:31.552Z,65.20
2023-07-02T23:56:42.527Z,65.44
2023-07-02T23:59:36.579Z,65.57
